createdAt,value
2022-12-03T00:02:14.042Z,101267.92
2022-12-03T00:05:01.759Z,101266.20
2022-12-03T00:07:49.835Z,101272.10
2022-12-03T00:10:37.182Z,101276.43
2022-12-03T00:13:24.749Z,101278.17
2022-12-03T00:16:12.512Z,101275.23
2022-12-03T00:19:00.398Z,101272.78
2022-12-03T00:21:47.731Z,101269.13
2022-12-03T00:24:35.585Z,101269.27
2022-12-03T00:27:23.406Z,101266.48
2022-12-03T00:30:12.047Z,101269.93
2022-12-03T00:32:59.689Z,101266.13
2022-12-03T00:35:48.849Z,101267.48
2022-12-03T00:38:36.641Z,101264.88
2022-12-03T00:41:24.127Z,101265.91
2022-12-03T00:44:12.193Z,101267.13
2022-12-03T00:46:59.943Z,101267.30
2022-12-03T00:49:47.474Z,101264.70
2022-12-03T00:52:35.345Z,101271.11
2022-12-03T00:55:23.072Z,101266.94
2022-12-03T00:58:10.867Z,101267.47
2022-12-03T01:00:58.489Z,101267.31
2022-12-03T01:03:46.030Z,101272.52
2022-12-03T01:06:33.410Z,101270.80
2022-12-03T01:09:21.069Z,101273.58
2022-12-03T01:12:08.786Z,101272.17
2022-12-03T01:14:56.330Z,101274.45
2022-12-03T01:17:44.217Z,101270.12
2022-12-03T01:20:32.168Z,101267.36
2022-12-03T01:23:19.852Z,101266.68
2022-12-03T01:26:07.474Z,101269.65
2022-12-03T01:28:56.523Z,101269.29
2022-12-03T01:32:03.177Z,101269.84
2022-12-03T01:34:56.071Z,101262.73
2022-12-03T01:37:43.866Z,101263.96
2022-12-03T01:40:31.404Z,101264.30
2022-12-03T01:43:18.917Z,101258.40
2022-12-03T01:46:06.710Z,101259.28
2022-12-03T01:48:56.273Z,101261.01
2022-12-03T01:51:44.951Z,101257.37
2022-12-03T01:54:39.956Z,101255.96
2022-12-03T01:57:53.223Z,101257.70
2022-12-03T02:00:41.509Z,101254.75
2022-12-03T02:03:29.123Z,101247.65
2022-12-03T02:06:19.674Z,101245.57
2022-12-03T02:09:09.593Z,101239.85
2022-12-03T02:11:57.367Z,101244.20
2022-12-03T02:14:45.438Z,101238.48
2022-12-03T02:17:33.668Z,101239.18
2022-12-03T02:20:22.140Z,101238.66
2022-12-03T02:23:24.008Z,101241.10
2022-12-03T02:26:11.380Z,101239.02
2022-12-03T02:29:00.015Z,101235.88
2022-12-03T02:31:47.713Z,101235.02
2022-12-03T02:34:46.077Z,101231.20
2022-12-03T02:37:37.352Z,101233.96
2022-12-03T02:40:29.041Z,101227.20
2022-12-03T02:43:19.993Z,101226.16
2022-12-03T02:46:08.260Z,101226.84
2022-12-03T02:48:55.703Z,101222.50
2022-12-03T02:51:43.416Z,101226.98
2022-12-03T02:54:32.064Z,101225.41
2022-12-03T02:57:20.250Z,101224.89
2022-12-03T03:00:10.416Z,101224.54
2022-12-03T03:02:58.392Z,101223.15
2022-12-03T03:05:47.358Z,101226.44
2022-12-03T03:08:38.035Z,101231.12
2022-12-03T03:11:26.391Z,101228.17
2022-12-03T03:14:14.054Z,101231.14
2022-12-03T03:17:01.694Z,101231.66
2022-12-03T03:19:49.624Z,101229.41
2022-12-03T03:22:41.385Z,101230.11
2022-12-03T03:25:29.258Z,101228.73
2022-12-03T03:28:17.709Z,101225.95
2022-12-03T03:31:08.196Z,101225.59
2022-12-03T03:33:56.380Z,101220.22
2022-12-03T03:36:45.048Z,101219.38
2022-12-03T03:39:33.051Z,101214.88
2022-12-03T03:42:24.192Z,101212.27
2022-12-03T03:45:11.787Z,101216.44
2022-12-03T03:48:00.625Z,101216.10
2022-12-03T03:50:49.804Z,101211.42
2022-12-03T03:53:45.835Z,101212.13
2022-12-03T03:56:34.625Z,101210.05
2022-12-03T03:59:22.394Z,101210.04
2022-12-03T04:02:25.000Z,101206.75
2022-12-03T04:05:24.031Z,101205.89
2022-12-03T04:08:11.534Z,101206.25
2022-12-03T04:11:17.799Z,101202.95
2022-12-03T04:14:05.343Z,101202.77
2022-12-03T04:16:53.317Z,101200.52
2022-12-03T04:19:40.970Z,101194.79
2022-12-03T04:22:40.806Z,101194.97
2022-12-03T04:25:47.261Z,101189.07
2022-12-03T04:28:50.356Z,101190.11
2022-12-03T04:31:56.826Z,101189.94
2022-12-03T04:35:03.056Z,101187.86
2022-12-03T04:37:50.729Z,101191.67
2022-12-03T04:40:57.636Z,101190.82
2022-12-03T04:44:03.762Z,101186.98
2022-12-03T04:46:51.409Z,101185.94
2022-12-03T04:49:43.097Z,101185.61
2022-12-03T04:52:30.735Z,101185.93
2022-12-03T04:55:19.794Z,101178.99
2022-12-03T04:58:07.477Z,101177.77
2022-12-03T05:00:55.162Z,101177.25
2022-12-03T05:03:43.213Z,101178.45
2022-12-03T05:06:30.967Z,101178.09
2022-12-03T05:09:18.805Z,101177.77
2022-12-03T05:12:06.795Z,101177.23
2022-12-03T05:14:54.460Z,101177.42
2022-12-03T05:17:42.293Z,101179.85
2022-12-03T05:20:41.715Z,101183.16
2022-12-03T05:23:29.545Z,101183.17
2022-12-03T05:26:17.283Z,101180.05
2022-12-03T05:29:04.826Z,101174.34
2022-12-03T05:31:52.348Z,101172.42
2022-12-03T05:34:40.023Z,101170.86
2022-12-03T05:37:27.945Z,101172.42
2022-12-03T05:40:16.165Z,101176.58
2022-12-03T05:43:04.344Z,101177.11
2022-12-03T05:45:52.264Z,101176.94
2022-12-03T05:48:39.806Z,101172.77
2022-12-03T05:51:27.353Z,101171.55
2022-12-03T05:54:15.233Z,101173.11
2022-12-03T05:57:03.110Z,101173.11
2022-12-03T05:59:50.804Z,101173.11
2022-12-03T06:02:38.563Z,101169.66
2022-12-03T06:05:26.332Z,101175.19
2022-12-03T06:08:13.971Z,101175.02
2022-12-03T06:11:01.525Z,101174.31
2022-12-03T06:13:49.147Z,101175.35
2022-12-03T06:16:37.009Z,101173.95
2022-12-03T06:19:24.592Z,101173.27
2022-12-03T06:22:12.311Z,101170.84
2022-12-03T06:25:06.213Z,101168.42
2022-12-03T06:27:54.731Z,101169.12
2022-12-03T06:30:42.295Z,101166.17
2022-12-03T06:33:29.676Z,101165.66
2022-12-03T06:36:22.624Z,101171.02
2022-12-03T06:39:10.714Z,101180.74
2022-12-03T06:41:58.421Z,101183.36
2022-12-03T06:44:46.043Z,101181.97
2022-12-03T06:47:33.544Z,101183.52
2022-12-03T06:50:21.473Z,101181.09
2022-12-03T06:53:09.149Z,101181.96
2022-12-03T06:55:56.833Z,101180.20
2022-12-03T06:58:44.556Z,101178.65
2022-12-03T07:01:32.216Z,101179.70
2022-12-03T07:04:19.871Z,101184.73
2022-12-03T07:07:07.472Z,101181.95
2022-12-03T07:09:55.931Z,101180.05
2022-12-03T07:12:43.528Z,101179.87
2022-12-03T07:15:31.210Z,101180.40
2022-12-03T07:18:18.744Z,101182.66
2022-12-03T07:21:06.289Z,101183.01
2022-12-03T07:23:54.060Z,101179.36
2022-12-03T07:26:41.797Z,101175.73
2022-12-03T07:29:29.441Z,101177.11
2022-12-03T07:32:17.430Z,101178.48
2022-12-03T07:35:07.575Z,101179.54
2022-12-03T07:37:55.464Z,101178.66
2022-12-03T07:40:43.249Z,101176.76
2022-12-03T07:43:30.899Z,101173.13
2022-12-03T07:46:18.192Z,101166.36
2022-12-03T07:49:05.688Z,101167.75
2022-12-03T07:51:57.242Z,101168.79
2022-12-03T07:54:45.084Z,101171.55
2022-12-03T07:57:32.661Z,101170.02
2022-12-03T08:00:21.097Z,101176.08
2022-12-03T08:03:08.710Z,101175.02
2022-12-03T08:05:56.288Z,101176.23
2022-12-03T08:08:43.874Z,101173.11
2022-12-03T08:11:33.341Z,101168.09
2022-12-03T08:14:21.151Z,101170.70
2022-12-03T08:17:15.597Z,101172.77
2022-12-03T08:20:13.713Z,101172.23
2022-12-03T08:23:06.828Z,101176.41
2022-12-03T08:25:54.315Z,101175.20
2022-12-03T08:28:42.538Z,101173.28
2022-12-03T08:31:33.680Z,101164.59
2022-12-03T08:34:26.448Z,101168.73
2022-12-03T08:37:19.323Z,101168.55
2022-12-03T08:40:40.914Z,101166.47
2022-12-03T08:43:33.983Z,101164.20
2022-12-03T08:46:21.489Z,101157.79
2022-12-03T08:49:09.771Z,101161.95
2022-12-03T08:52:00.544Z,101158.98
2022-12-03T08:54:56.187Z,101160.35
2022-12-03T08:57:44.275Z,101155.98
2022-12-03T09:00:32.592Z,101161.33
2022-12-03T09:03:20.328Z,101156.96
2022-12-03T09:06:08.839Z,101157.48
2022-12-03T09:08:56.674Z,101158.90
2022-12-03T09:11:44.507Z,101161.17
2022-12-03T09:14:32.181Z,101162.59
2022-12-03T09:17:20.099Z,101160.67
2022-12-03T09:20:08.780Z,101162.05
2022-12-03T09:22:56.185Z,101160.64
2022-12-03T09:25:43.784Z,101157.34
2022-12-03T09:28:31.343Z,101155.80
2022-12-03T09:31:19.955Z,101151.11
2022-12-03T09:34:09.744Z,101150.92
2022-12-03T09:36:57.700Z,101147.12
2022-12-03T09:39:45.604Z,101144.70
2022-12-03T09:42:34.072Z,101142.13
2022-12-03T09:45:21.523Z,101136.41
2022-12-03T09:48:12.580Z,101136.05
2022-12-03T09:51:01.457Z,101133.80
2022-12-03T09:53:49.387Z,101131.52
2022-12-03T09:56:38.188Z,101130.65
2022-12-03T09:59:31.703Z,101136.52
2022-12-03T10:02:29.700Z,101133.02
2022-12-03T10:05:22.321Z,101134.23
2022-12-03T10:08:20.802Z,101129.73
2022-12-03T10:11:08.239Z,101127.44
2022-12-03T10:13:58.105Z,101122.55
2022-12-03T10:16:46.169Z,101124.27
2022-12-03T10:19:37.603Z,101124.96
2022-12-03T10:22:25.154Z,101123.59
2022-12-03T10:25:17.355Z,101121.35
2022-12-03T10:28:05.386Z,101116.48
2022-12-03T10:30:57.112Z,101115.24
2022-12-03T10:33:47.359Z,101115.77
2022-12-03T10:36:34.839Z,101114.89
2022-12-03T10:39:22.924Z,101109.69
2022-12-03T10:42:16.625Z,101107.77
2022-12-03T10:45:23.106Z,101116.95
2022-12-03T10:48:14.186Z,101114.36
2022-12-03T10:51:03.545Z,101107.95
2022-12-03T10:53:51.496Z,101109.33
2022-12-03T10:56:39.057Z,101103.08
2022-12-03T10:59:32.972Z,101100.45
2022-12-03T11:02:23.670Z,101100.96
2022-12-03T11:05:21.964Z,101099.92
2022-12-03T11:08:24.167Z,101099.20
2022-12-03T11:11:25.052Z,101101.80
2022-12-03T11:14:15.663Z,101100.46
2022-12-03T11:17:08.053Z,101096.29
2022-12-03T11:19:55.661Z,101094.89
2022-12-03T11:22:49.088Z,101088.96
2022-12-03T11:25:50.744Z,101086.81
2022-12-03T11:28:55.096Z,101088.65
2022-12-03T11:31:46.593Z,101089.48
2022-12-03T11:34:34.786Z,101089.65
2022-12-03T11:37:23.768Z,101089.30
2022-12-03T11:40:17.439Z,101084.77
2022-12-03T11:43:05.540Z,101083.36
2022-12-03T11:45:52.957Z,101081.30
2022-12-03T11:48:49.273Z,101076.77
2022-12-03T11:51:36.957Z,101072.23
2022-12-03T11:54:25.079Z,101070.81
2022-12-03T11:57:31.897Z,101068.35
2022-12-03T12:00:24.456Z,101066.38
2022-12-03T12:03:26.033Z,101060.73
2022-12-03T12:06:21.707Z,101061.24
2022-12-03T12:09:11.721Z,101056.23
2022-12-03T12:12:18.945Z,101057.50
2022-12-03T12:15:43.674Z,101053.86
2022-12-03T12:18:53.701Z,101055.08
2022-12-03T12:21:48.958Z,101053.19
2022-12-03T12:24:48.418Z,101053.58
2022-12-03T12:27:45.638Z,101045.75
2022-12-03T12:30:33.912Z,101039.83
2022-12-03T12:33:24.645Z,101039.64
2022-12-03T12:36:12.500Z,101039.99
2022-12-03T12:39:07.976Z,101037.24
2022-12-03T12:41:55.830Z,101038.98
2022-12-03T12:44:44.356Z,101039.14
2022-12-03T12:47:32.600Z,101038.60
2022-12-03T12:50:23.383Z,101038.58
2022-12-03T12:53:11.228Z,101035.62
2022-12-03T12:56:11.287Z,101034.41
2022-12-03T12:59:14.085Z,101030.60
2022-12-03T13:02:04.509Z,101027.65
2022-12-03T13:04:57.075Z,101028.65
2022-12-03T13:07:46.115Z,101028.77
2022-12-03T13:10:41.904Z,101025.85
2022-12-03T13:13:44.196Z,101027.02
2022-12-03T13:16:33.254Z,101026.01
2022-12-03T13:19:29.192Z,101021.19
2022-12-03T13:22:21.756Z,101022.30
2022-12-03T13:28:45.035Z,101020.76
2022-12-03T13:31:43.227Z,101020.58
2022-12-03T13:34:33.695Z,101019.73
2022-12-03T13:37:28.243Z,101017.31
2022-12-03T13:40:33.009Z,101015.75
2022-12-03T13:43:20.910Z,101019.74
2022-12-03T13:46:09.999Z,101018.17
2022-12-03T13:49:01.705Z,101018.00
2022-12-03T13:51:50.512Z,101015.94
2022-12-03T13:54:39.354Z,101016.65
2022-12-03T13:57:27.944Z,101016.27
2022-12-03T14:00:15.842Z,101019.05
2022-12-03T14:03:03.467Z,101016.31
2022-12-03T14:05:51.002Z,101018.11
2022-12-03T14:08:38.643Z,101020.39
2022-12-03T14:11:58.435Z,101019.55
2022-12-03T14:14:46.274Z,101017.33
2022-12-03T14:17:34.276Z,101014.05
2022-12-03T14:20:21.692Z,101013.19
2022-12-03T14:23:08.979Z,101007.77
2022-12-03T14:25:56.506Z,101009.14
2022-12-03T14:28:44.154Z,101008.61
2022-12-03T14:31:31.831Z,101005.50
2022-12-03T14:34:19.409Z,101007.27
2022-12-03T14:37:07.125Z,101008.52
2022-12-03T14:39:54.896Z,101002.94
2022-12-03T14:42:42.628Z,101005.02
2022-12-03T14:45:30.738Z,100999.42
2022-12-03T14:48:18.546Z,101002.41
2022-12-03T14:51:06.424Z,100996.33
2022-12-03T14:53:53.917Z,100991.80
2022-12-03T14:56:41.327Z,100996.52
2022-12-03T14:59:28.769Z,100994.59
2022-12-03T15:02:16.669Z,100997.17
2022-12-03T15:05:04.925Z,100998.19
2022-12-03T15:07:52.747Z,100995.58
2022-12-03T15:10:40.575Z,100999.55
2022-12-03T15:13:28.186Z,101004.21
2022-12-03T15:16:15.597Z,101001.82
2022-12-03T15:19:03.665Z,101003.41
2022-12-03T15:21:51.080Z,101001.86
2022-12-03T15:24:38.420Z,101005.39
2022-12-03T15:27:26.450Z,101005.26
2022-12-03T15:30:14.253Z,101005.11
2022-12-03T15:33:03.250Z,101002.88
2022-12-03T15:35:50.645Z,101000.80
2022-12-03T15:38:38.373Z,101007.06
2022-12-03T15:41:29.709Z,101011.40
2022-12-03T15:44:17.127Z,101011.23
2022-12-03T15:47:04.627Z,101010.73
2022-12-03T15:49:52.244Z,101015.79
2022-12-03T15:52:40.740Z,101013.92
2022-12-03T15:55:29.034Z,101010.64
2022-12-03T15:58:16.586Z,101009.23
2022-12-03T16:01:04.984Z,101010.32
2022-12-03T16:03:53.039Z,101009.64
2022-12-03T16:06:40.985Z,101007.92
2022-12-03T16:09:28.555Z,101008.23
2022-12-03T16:12:16.336Z,101011.54
2022-12-03T16:15:04.387Z,101012.39
2022-12-03T16:17:51.997Z,101013.74
2022-12-03T16:20:39.588Z,101013.22
2022-12-03T16:23:27.139Z,101018.43
2022-12-03T16:26:14.939Z,101011.33
2022-12-03T16:29:02.775Z,101006.66
2022-12-03T16:31:50.500Z,101010.29
2022-12-03T16:34:37.954Z,101010.63
2022-12-03T16:37:25.620Z,101011.66
2022-12-03T16:40:13.257Z,101014.57
2022-12-03T16:43:00.915Z,101015.77
2022-12-03T16:46:02.784Z,101009.31
2022-12-03T16:48:50.742Z,101009.65
2022-12-03T16:51:38.260Z,101012.05
2022-12-03T16:54:25.826Z,101006.11
2022-12-03T16:57:13.966Z,101005.75
2022-12-03T17:00:01.757Z,101008.00
2022-12-03T17:02:49.625Z,101006.77
2022-12-03T17:05:37.340Z,101011.45
2022-12-03T17:08:25.183Z,101006.42
2022-12-03T17:11:12.707Z,101008.52
2022-12-03T17:14:00.340Z,101006.98
2022-12-03T17:16:48.136Z,101004.58
2022-12-03T17:19:35.956Z,101008.38
2022-12-03T17:22:23.480Z,101011.70
2022-12-03T17:25:13.545Z,101010.32
2022-12-03T17:28:02.144Z,101009.09
2022-12-03T17:30:49.901Z,101008.91
2022-12-03T17:33:45.368Z,101005.73
2022-12-03T17:36:33.759Z,101005.73
2022-12-03T17:39:22.178Z,101002.12
2022-12-03T17:42:10.078Z,101003.89
2022-12-03T17:44:58.946Z,101004.07
2022-12-03T17:47:51.077Z,101000.08
2022-12-03T17:50:39.208Z,101004.29
2022-12-03T17:53:27.945Z,101010.74
2022-12-03T17:56:15.518Z,101008.36
2022-12-03T17:59:03.688Z,101011.88
2022-12-03T18:01:51.743Z,101011.88
2022-12-03T18:04:39.365Z,101009.26
2022-12-03T18:07:27.634Z,101008.58
2022-12-03T18:10:15.496Z,101014.48
2022-12-03T18:13:03.967Z,101014.11
2022-12-03T18:15:53.213Z,101016.56
2022-12-03T18:18:41.665Z,101011.70
2022-12-03T18:21:30.493Z,101012.58
2022-12-03T18:24:18.275Z,101007.00
2022-12-03T18:27:06.722Z,101010.80
2022-12-03T18:30:11.987Z,101008.55
2022-12-03T18:33:00.283Z,101009.41
2022-12-03T18:35:50.114Z,101005.26
2022-12-03T18:38:39.834Z,101003.01
2022-12-03T18:41:28.266Z,101000.59
2022-12-03T18:44:18.576Z,101001.81
2022-12-03T18:47:19.165Z,101004.05
2022-12-03T18:50:35.172Z,101005.25
2022-12-03T18:53:24.149Z,101006.10
2022-12-03T18:56:13.423Z,101005.02
2022-12-03T18:59:02.830Z,101005.86
2022-12-03T19:01:50.664Z,101012.27
2022-12-03T19:04:38.279Z,101015.59
2022-12-03T19:07:26.292Z,101017.17
2022-12-03T19:10:17.960Z,101018.92
2022-12-03T19:13:06.048Z,101016.00
2022-12-03T19:15:55.838Z,101017.39
2022-12-03T19:18:44.764Z,101017.91
2022-12-03T19:21:37.727Z,101023.27
2022-12-03T19:24:27.502Z,101026.23
2022-12-03T19:27:15.899Z,101027.98
2022-12-03T19:30:05.335Z,101024.35
2022-12-03T19:32:53.252Z,101024.34
2022-12-03T19:35:41.111Z,101028.32
2022-12-03T19:38:31.658Z,101028.31
2022-12-03T19:41:23.903Z,101026.58
2022-12-03T19:44:18.044Z,101022.98
2022-12-03T19:47:14.197Z,101025.55
2022-12-03T19:50:07.589Z,101026.95
2022-12-03T19:52:58.572Z,101031.98
2022-12-03T19:55:47.894Z,101029.20
2022-12-03T19:58:38.754Z,101030.08
2022-12-03T20:01:33.656Z,101031.41
2022-12-03T20:04:21.625Z,101027.23
2022-12-03T20:07:09.432Z,101027.73
2022-12-03T20:09:57.764Z,101029.65
2022-12-03T20:12:46.179Z,101026.17
2022-12-03T20:15:37.552Z,101028.42
2022-12-03T20:18:25.438Z,101027.02
2022-12-03T20:21:16.146Z,101028.05
2022-12-03T20:24:05.581Z,101028.77
2022-12-03T20:26:53.228Z,101027.56
2022-12-03T20:29:40.895Z,101029.11
2022-12-03T20:32:28.686Z,101030.33
2022-12-03T20:35:17.911Z,101025.45
2022-12-03T20:38:06.980Z,101023.87
2022-12-03T20:40:55.210Z,101024.91
2022-12-03T20:43:46.627Z,101019.34
2022-12-03T20:46:38.496Z,101025.90
2022-12-03T20:49:30.394Z,101023.10
2022-12-03T20:52:19.990Z,101013.05
2022-12-03T20:55:08.736Z,101013.76
2022-12-03T20:57:57.462Z,101014.11
2022-12-03T21:00:45.427Z,101016.00
2022-12-03T21:03:33.714Z,101014.94
2022-12-03T21:06:23.452Z,101018.39
2022-12-03T21:09:14.248Z,101013.19
2022-12-03T21:12:02.329Z,101010.40
2022-12-03T21:14:53.571Z,101008.83
2022-12-03T21:17:41.510Z,101009.02
2022-12-03T21:20:29.777Z,101013.89
2022-12-03T21:23:17.752Z,101013.21
2022-12-03T21:26:15.377Z,101016.33
2022-12-03T21:29:02.988Z,101021.01
2022-12-03T21:31:51.336Z,101023.27
2022-12-03T21:34:39.236Z,101020.33
2022-12-03T21:37:27.297Z,101020.15
2022-12-03T21:40:15.717Z,101017.56
2022-12-03T21:43:03.378Z,101020.54
2022-12-03T21:45:52.076Z,101018.11
2022-12-03T21:48:40.158Z,101019.46
2022-12-03T21:51:27.988Z,101022.92
2022-12-03T21:54:15.739Z,101019.98
2022-12-03T21:57:20.264Z,101018.77
2022-12-03T22:00:13.208Z,101020.48
2022-12-03T22:03:24.723Z,101025.67
2022-12-03T22:06:18.666Z,101027.60
2022-12-03T22:09:07.686Z,101029.33
2022-12-03T22:11:57.859Z,101028.63
2022-12-03T22:14:46.248Z,101024.80
2022-12-03T22:17:36.397Z,101025.15
2022-12-03T22:20:27.025Z,101023.92
2022-12-03T22:23:36.648Z,101028.10
2022-12-03T22:26:30.491Z,101033.17
2022-12-03T22:29:18.382Z,101031.10
2022-12-03T22:32:06.771Z,101037.87
2022-12-03T22:34:57.098Z,101035.93
2022-12-03T22:37:44.926Z,101036.78
2022-12-03T22:40:33.219Z,101030.15
2022-12-03T22:47:11.451Z,101024.41
2022-12-03T22:50:32.553Z,101015.20
2022-12-03T22:53:23.209Z,101009.63
2022-12-03T22:56:12.195Z,101013.80
2022-12-03T22:59:00.956Z,101012.42
2022-12-03T23:01:51.590Z,101012.45
2022-12-03T23:04:39.455Z,101014.71
2022-12-03T23:07:29.385Z,101018.69
2022-12-03T23:10:28.394Z,101021.77
2022-12-03T23:13:23.822Z,101021.56
2022-12-03T23:16:28.897Z,101017.92
2022-12-03T23:19:19.966Z,101010.29
2022-12-03T23:22:12.409Z,101009.96
2022-12-03T23:25:00.525Z,101009.10
2022-12-03T23:27:50.485Z,101014.80
2022-12-03T23:30:39.859Z,101008.36
2022-12-03T23:33:32.948Z,101006.44
2022-12-03T23:36:29.129Z,101004.49
2022-12-03T23:39:20.234Z,101006.02
2022-12-03T23:42:11.990Z,101008.27
2022-12-03T23:44:59.746Z,101009.17
2022-12-03T23:47:47.467Z,101008.98
2022-12-03T23:50:38.260Z,101011.59
2022-12-03T23:53:25.843Z,101008.44
2022-12-03T23:56:22.099Z,101003.73
2022-12-03T23:59:09.875Z,101005.97
